Haile, Louisiana
Current Conditions -  °F | °C
As of 8:15 AM on Thursday 27 Nov 2014 (Local Time) from KBQP Reporting Station
Clear Clear  
Wind Chill: 37°   Ceiling: Unl
Heat Index: 41°   Visibility: 10mi
Dew Point: 29°   Wind: 7mph
Humidity: 62%   Direction: 360°N
Pressure: 30.51"   Gusts: NA
Location:  32.906°N, 92.243°W
Report Text: KBQP 271415Z AUTO 36006KT 10SM CLR 05/M02 A3051 RMK AO2 T00521016
Loading
Personal Weather Stations






























Interactive Weather Map New forecast layout! Learn more

10-Day Weather Forecast

Advertisements
Track Severe Weather on mobile